Time;durP1;ratioP1;P1;durP2;ratioP2;P2;SDS_P1;SDS_P2;PMS_P1;PMS_P2;Temp;Humidity;BMP_temperature;BMP_pressure;BME280_temperature;BME280_humidity;BME280_pressure;Samples;Min_cycle;Max_cycle;Signal;HPM_P1;HPM_P2
2022/11/01 00:00:56;;;;;;;0.60;0.43;;;;;;;;;;4082895;29;20588;-49
2022/11/01 00:02:57;;;;;;;0.82;0.60;;;;;;;;;;4067445;29;20198;-46
2022/11/01 00:04:59;;;;;;;0.55;0.40;;;;;;;;;;4068170;29;20567;-46
2022/11/01 00:07:00;;;;;;;0.80;0.40;;;;;;;;;;4069263;29;20488;-50
2022/11/01 00:09:02;;;;;;;0.80;0.50;;;;;;;;;;4068404;29;20063;-48
2022/11/01 00:11:05;;;;;;;0.93;0.60;;;;;;;;;;4067018;29;20103;-45
2022/11/01 00:13:07;;;;;;;1.20;0.50;;;;;;;;;;4068302;29;20052;-44
2022/11/01 00:15:08;;;;;;;0.60;0.50;;;;;;;;;;4081950;29;20566;-44
2022/11/01 00:17:10;;;;;;;0.28;0.28;;;;;;;;;;4067985;29;20051;-44
2022/11/01 00:19:12;;;;;;;0.50;0.50;;;;;;;;;;4068041;29;20052;-44
2022/11/01 00:21:14;;;;;;;0.40;0.40;;;;;;;;;;4067960;29;20112;-46
2022/11/01 00:23:16;;;;;;;0.40;0.30;;;;;;;;;;4067228;29;20063;-44
2022/11/01 00:25:17;;;;;;;0.63;0.50;;;;;;;;;;4067843;29;20148;-47
2022/11/01 00:27:19;;;;;;;0.50;0.50;;;;;;;;;;4071772;29;20059;-47
2022/11/01 00:29:20;;;;;;;0.77;0.50;;;;;;;;;;4073251;29;20458;-44
2022/11/01 00:31:22;;;;;;;0.45;0.43;;;;;;;;;;4067249;29;20064;-45
2022/11/01 00:33:24;;;;;;;0.60;0.43;;;;;;;;;;4066950;29;20056;-45
2022/11/01 00:35:25;;;;;;;0.65;0.50;;;;;;;;;;4068432;29;20084;-47
2022/11/01 00:37:28;;;;;;;0.57;0.30;;;;;;;;;;4073391;29;20066;-45
2022/11/01 00:39:29;;;;;;;0.25;0.25;;;;;;;;;;4070262;29;20077;-43
2022/11/01 00:41:31;;;;;;;0.55;0.47;;;;;;;;;;4076299;29;20052;-44
2022/11/01 00:43:33;;;;;;;0.70;0.50;;;;;;;;;;4076364;29;20068;-46
2022/11/01 00:45:35;;;;;;;0.47;0.30;;;;;;;;;;4072968;29;20111;-43
2022/11/01 00:47:36;;;;;;;0.50;0.30;;;;;;;;;;4070595;29;20080;-45
2022/11/01 00:49:38;;;;;;;0.70;0.38;;;;;;;;;;4076074;29;20060;-45
2022/11/01 00:51:39;;;;;;;0.98;0.47;;;;;;;;;;4067437;29;20108;-44
2022/11/01 00:53:41;;;;;;;1.17;0.40;;;;;;;;;;4066619;29;20460;-46
2022/11/01 00:55:42;;;;;;;1.85;0.60;;;;;;;;;;4066955;29;20107;-47
2022/11/01 00:57:44;;;;;;;0.30;0.30;;;;;;;;;;4081867;29;20102;-46
2022/11/01 00:59:45;;;;;;;0.40;0.30;;;;;;;;;;4067609;29;20115;-46
2022/11/01 01:01:46;;;;;;;0.55;0.40;;;;;;;;;;4066466;29;20492;-45
2022/11/01 01:03:47;;;;;;;0.70;0.40;;;;;;;;;;4071799;29;20090;-48
2022/11/01 01:05:50;;;;;;;1.02;0.47;;;;;;;;;;4075910;29;20106;-49
2022/11/01 01:07:51;;;;;;;0.40;0.30;;;;;;;;;;4067225;29;20500;-44
2022/11/01 01:09:53;;;;;;;0.50;0.40;;;;;;;;;;4073551;29;20060;-48
2022/11/01 01:11:54;;;;;;;0.50;0.40;;;;;;;;;;4070460;29;20055;-47
2022/11/01 01:13:55;;;;;;;0.88;0.45;;;;;;;;;;4070108;29;20056;-44
2022/11/01 01:15:57;;;;;;;0.50;0.30;;;;;;;;;;4067113;29;20108;-47
2022/11/01 01:17:58;;;;;;;1.05;0.40;;;;;;;;;;4081107;29;20059;-50
2022/11/01 01:19:59;;;;;;;0.50;0.40;;;;;;;;;;4075267;29;20060;-45
2022/11/01 01:22:01;;;;;;;0.82;0.50;;;;;;;;;;4070504;29;20055;-49
2022/11/01 01:24:03;;;;;;;0.30;0.30;;;;;;;;;;4067007;29;20056;-47
2022/11/01 01:26:06;;;;;;;0.55;0.43;;;;;;;;;;4067954;29;20084;-46
2022/11/01 01:28:08;;;;;;;0.50;0.35;;;;;;;;;;4073017;29;20048;-47
2022/11/01 01:30:09;;;;;;;0.70;0.35;;;;;;;;;;4067071;29;20059;-49
2022/11/01 01:32:15;;;;;;;0.30;0.30;;;;;;;;;;4065192;29;20179;-46
2022/11/01 01:34:17;;;;;;;0.50;0.50;;;;;;;;;;4067954;29;20059;-49
2022/11/01 01:36:18;;;;;;;1.27;0.60;;;;;;;;;;4074838;29;20056;-47
2022/11/01 01:38:19;;;;;;;1.17;0.50;;;;;;;;;;4067002;29;20078;-44
2022/11/01 01:40:21;;;;;;;0.35;0.30;;;;;;;;;;4074072;29;20055;-47
2022/11/01 01:42:32;;;;;;;1.10;0.40;;;;;;;;;;4066718;29;20088;-47
2022/11/01 01:44:45;;;;;;;0.50;0.50;;;;;;;;;;4066859;29;20430;-49
2022/11/01 01:46:46;;;;;;;1.25;0.50;;;;;;;;;;4066396;29;20056;-45
2022/11/01 01:48:51;;;;;;;0.63;0.30;;;;;;;;;;4071094;29;20119;-46
2022/11/01 01:51:00;;;;;;;0.50;0.40;;;;;;;;;;4081215;29;20051;-48
2022/11/01 01:53:07;;;;;;;0.73;0.57;;;;;;;;;;4065931;29;20060;-48
2022/11/01 01:55:09;;;;;;;0.60;0.45;;;;;;;;;;4064998;29;20107;-49
2022/11/01 01:57:11;;;;;;;0.50;0.40;;;;;;;;;;4065405;29;20111;-46
2022/11/01 01:59:12;;;;;;;0.45;0.40;;;;;;;;;;4067231;29;20064;-50
2022/11/01 02:01:14;;;;;;;0.45;0.45;;;;;;;;;;4065240;29;20492;-50
2022/11/01 02:03:15;;;;;;;0.40;0.40;;;;;;;;;;4065813;29;20405;-47
2022/11/01 02:05:52;;;;;;;0.60;0.40;;;;;;;;;;4066811;29;20056;-47
2022/11/01 02:07:55;;;;;;;0.73;0.32;;;;;;;;;;4065297;29;20084;-49
2022/11/01 02:09:56;;;;;;;1.02;0.35;;;;;;;;;;4065038;29;20516;-48
2022/11/01 02:11:57;;;;;;;0.45;0.35;;;;;;;;;;4066678;29;20440;-46
2022/11/01 02:13:59;;;;;;;0.68;0.50;;;;;;;;;;4065265;29;20092;-46
2022/11/01 02:16:18;;;;;;;0.60;0.35;;;;;;;;;;4066615;29;20067;-47
2022/11/01 02:18:30;;;;;;;0.95;0.45;;;;;;;;;;4077895;29;20063;-47
2022/11/01 02:20:36;;;;;;;0.47;0.30;;;;;;;;;;4064584;29;20056;-45
2022/11/01 02:22:54;;;;;;;1.02;0.52;;;;;;;;;;4066387;29;20419;-45
2022/11/01 02:25:23;;;;;;;0.43;0.35;;;;;;;;;;4071686;29;20064;-43
2022/11/01 02:27:29;;;;;;;0.55;0.38;;;;;;;;;;4059009;29;20056;-47
2022/11/01 02:30:06;;;;;;;0.63;0.40;;;;;;;;;;4066210;29;20103;-44
2022/11/01 02:32:28;;;;;;;1.40;0.50;;;;;;;;;;4076245;29;20520;-46
2022/11/01 02:34:56;;;;;;;0.50;0.47;;;;;;;;;;4067150;29;20079;-45
2022/11/01 02:37:01;;;;;;;1.00;0.40;;;;;;;;;;4060713;29;20047;-45
2022/11/01 02:39:12;;;;;;;0.40;0.40;;;;;;;;;;4057135;29;20080;-46
2022/11/01 02:41:23;;;;;;;0.45;0.30;;;;;;;;;;4067868;29;20463;-48
2022/11/01 02:43:32;;;;;;;0.90;0.32;;;;;;;;;;4068136;29;20432;-47
2022/11/01 02:45:39;;;;;;;0.40;0.30;;;;;;;;;;4075550;29;20059;-49
2022/11/01 02:47:40;;;;;;;0.40;0.30;;;;;;;;;;4069456;29;20063;-50
2022/11/01 02:49:45;;;;;;;0.50;0.38;;;;;;;;;;4069468;29;20064;-44
2022/11/01 02:51:48;;;;;;;0.35;0.35;;;;;;;;;;4075428;29;20059;-46
2022/11/01 02:53:49;;;;;;;1.40;0.40;;;;;;;;;;4072572;29;20056;-47
2022/11/01 02:55:52;;;;;;;0.40;0.40;;;;;;;;;;4068042;29;20107;-48
2022/11/01 02:57:53;;;;;;;0.65;0.47;;;;;;;;;;4069269;29;20056;-45
2022/11/01 03:00:12;;;;;;;0.40;0.30;;;;;;;;;;4068310;29;20063;-45
2022/11/01 03:02:38;;;;;;;0.60;0.40;;;;;;;;;;4067974;29;20108;-45
2022/11/01 03:04:39;;;;;;;0.50;0.40;;;;;;;;;;4063651;29;20067;-43
2022/11/01 03:06:45;;;;;;;0.40;0.30;;;;;;;;;;4067802;29;20052;-49
2022/11/01 03:08:50;;;;;;;0.30;0.30;;;;;;;;;;4072824;29;20059;-46
2022/11/01 03:11:15;;;;;;;0.47;0.30;;;;;;;;;;4067875;29;20060;-44
2022/11/01 03:13:28;;;;;;;0.47;0.47;;;;;;;;;;4068578;29;20063;-48
2022/11/01 03:15:32;;;;;;;0.40;0.38;;;;;;;;;;4075556;29;20059;-46
2022/11/01 03:17:42;;;;;;;0.60;0.40;;;;;;;;;;4067598;29;20075;-47
2022/11/01 03:20:16;;;;;;;0.47;0.40;;;;;;;;;;4067280;29;20419;-45
2022/11/01 03:22:23;;;;;;;0.25;0.20;;;;;;;;;;4056936;29;20072;-45
2022/11/01 03:24:31;;;;;;;0.65;0.40;;;;;;;;;;4076742;29;20073;-47
2022/11/01 03:26:34;;;;;;;0.70;0.30;;;;;;;;;;4067867;29;20068;-47
2022/11/01 03:28:41;;;;;;;1.02;0.40;;;;;;;;;;4068851;29;20415;-43
2022/11/01 03:30:48;;;;;;;0.32;0.32;;;;;;;;;;4076386;29;20067;-45
2022/11/01 03:32:53;;;;;;;0.40;0.30;;;;;;;;;;4074691;29;20436;-44
2022/11/01 03:34:54;;;;;;;0.35;0.35;;;;;;;;;;4067461;29;20063;-48
2022/11/01 03:37:00;;;;;;;1.02;0.40;;;;;;;;;;4068281;29;20432;-45
2022/11/01 03:39:04;;;;;;;0.32;0.32;;;;;;;;;;4067864;29;20060;-47
2022/11/01 03:41:09;;;;;;;0.73;0.32;;;;;;;;;;4078727;29;20178;-46
2022/11/01 03:43:12;;;;;;;0.40;0.38;;;;;;;;;;4056206;29;20060;-46
2022/11/01 03:45:16;;;;;;;0.32;0.32;;;;;;;;;;4082924;29;20091;-47
2022/11/01 03:47:17;;;;;;;0.80;0.45;;;;;;;;;;4075396;29;20060;-47
2022/11/01 03:49:18;;;;;;;0.80;0.60;;;;;;;;;;4068477;29;20052;-49
2022/11/01 03:51:20;;;;;;;1.02;0.57;;;;;;;;;;4082556;29;20088;-46
2022/11/01 03:53:21;;;;;;;0.75;0.50;;;;;;;;;;4067270;29;20056;-46
2022/11/01 03:55:23;;;;;;;0.30;0.30;;;;;;;;;;4067151;29;20388;-47
2022/11/01 03:57:24;;;;;;;0.40;0.20;;;;;;;;;;4068430;29;20119;-48
2022/11/01 03:59:26;;;;;;;0.63;0.47;;;;;;;;;;4068509;29;20084;-47
2022/11/01 04:01:27;;;;;;;0.45;0.30;;;;;;;;;;4078910;29;20108;-48
2022/11/01 04:03:29;;;;;;;0.30;0.30;;;;;;;;;;4079384;29;20064;-47
2022/11/01 04:05:31;;;;;;;0.90;0.50;;;;;;;;;;4068215;29;20063;-46
2022/11/01 04:07:33;;;;;;;0.52;0.30;;;;;;;;;;4075800;29;20055;-46
2022/11/01 04:09:34;;;;;;;0.50;0.40;;;;;;;;;;4080898;29;20059;-44
2022/11/01 04:11:35;;;;;;;0.50;0.40;;;;;;;;;;4066160;29;20476;-45
2022/11/01 04:13:37;;;;;;;0.88;0.52;;;;;;;;;;4068539;29;20185;-47
2022/11/01 04:20:31;;;;;;;0.60;0.40;;;;;;;;;;4068025;29;20056;-45
2022/11/01 04:22:34;;;;;;;0.40;0.40;;;;;;;;;;4082585;29;20063;-46
2022/11/01 04:24:35;;;;;;;0.30;0.30;;;;;;;;;;4066614;29;20128;-44
2022/11/01 04:26:36;;;;;;;0.38;0.28;;;;;;;;;;4065308;29;20479;-47
2022/11/01 04:28:37;;;;;;;0.63;0.60;;;;;;;;;;4068119;29;20103;-46
2022/11/01 04:30:39;;;;;;;0.93;0.47;;;;;;;;;;4074102;29;20079;-45
2022/11/01 04:32:43;;;;;;;1.65;0.65;;;;;;;;;;4076913;29;20063;-45
2022/11/01 04:34:44;;;;;;;0.70;0.30;;;;;;;;;;4067978;29;20448;-48
2022/11/01 04:36:46;;;;;;;0.85;0.50;;;;;;;;;;4076374;29;20064;-45
2022/11/01 04:38:49;;;;;;;0.20;0.20;;;;;;;;;;4082318;29;20079;-47
2022/11/01 04:40:50;;;;;;;0.90;0.55;;;;;;;;;;4067634;29;20064;-45
2022/11/01 04:42:54;;;;;;;0.22;0.22;;;;;;;;;;4067671;29;20056;-44
2022/11/01 04:44:55;;;;;;;0.55;0.30;;;;;;;;;;4078132;29;20510;-45
2022/11/01 04:46:57;;;;;;;0.30;0.30;;;;;;;;;;4073509;29;20448;-48
2022/11/01 04:48:58;;;;;;;0.57;0.40;;;;;;;;;;4067865;29;20060;-45
2022/11/01 04:51:01;;;;;;;0.55;0.40;;;;;;;;;;4067372;29;20448;-48
2022/11/01 04:53:02;;;;;;;0.43;0.40;;;;;;;;;;4066653;29;20060;-46
2022/11/01 04:55:04;;;;;;;0.35;0.30;;;;;;;;;;4067387;29;20056;-44
2022/11/01 04:57:05;;;;;;;0.43;0.30;;;;;;;;;;4067823;29;20495;-44
2022/11/01 04:59:06;;;;;;;0.90;0.50;;;;;;;;;;4067296;29;20060;-46
2022/11/01 05:01:08;;;;;;;0.25;0.25;;;;;;;;;;4081200;29;20056;-47
2022/11/01 05:03:10;;;;;;;0.50;0.40;;;;;;;;;;4080647;29;20083;-47
2022/11/01 05:05:11;;;;;;;0.85;0.40;;;;;;;;;;4069088;29;20412;-45
2022/11/01 05:07:13;;;;;;;0.90;0.30;;;;;;;;;;4068759;29;20056;-45
2022/11/01 05:09:14;;;;;;;0.32;0.32;;;;;;;;;;4067660;29;20052;-47
2022/11/01 05:11:16;;;;;;;1.70;0.30;;;;;;;;;;4067277;29;20056;-46
2022/11/01 05:13:17;;;;;;;1.52;0.40;;;;;;;;;;4070799;29;20492;-46
2022/11/01 05:15:18;;;;;;;0.85;0.47;;;;;;;;;;4067467;29;20055;-46
2022/11/01 05:17:20;;;;;;;0.30;0.25;;;;;;;;;;4069734;29;20378;-47
2022/11/01 05:19:21;;;;;;;0.25;0.20;;;;;;;;;;4067232;29;20071;-47
2022/11/01 05:21:23;;;;;;;0.40;0.40;;;;;;;;;;4081618;29;20175;-45
2022/11/01 05:23:24;;;;;;;0.30;0.22;;;;;;;;;;4075503;29;20467;-45
2022/11/01 05:25:26;;;;;;;0.40;0.30;;;;;;;;;;4090812;29;20059;-45
2022/11/01 05:27:27;;;;;;;0.22;0.22;;;;;;;;;;4090346;29;20162;-45
2022/11/01 05:29:29;;;;;;;0.35;0.30;;;;;;;;;;4065730;29;20075;-46
2022/11/01 05:31:30;;;;;;;0.30;0.30;;;;;;;;;;4066513;29;20060;-44
2022/11/01 05:33:31;;;;;;;0.45;0.20;;;;;;;;;;4067019;29;20104;-47
2022/11/01 05:35:33;;;;;;;0.40;0.20;;;;;;;;;;4081512;29;20352;-45
2022/11/01 05:37:35;;;;;;;0.40;0.30;;;;;;;;;;4067053;29;20554;-45
2022/11/01 05:39:37;;;;;;;0.40;0.30;;;;;;;;;;4066788;29;20048;-45
2022/11/01 05:41:39;;;;;;;0.40;0.40;;;;;;;;;;4066574;29;20134;-45
2022/11/01 05:43:40;;;;;;;0.52;0.45;;;;;;;;;;4075708;29;20052;-46
2022/11/01 05:45:42;;;;;;;0.30;0.30;;;;;;;;;;4065570;29;20643;-45
2022/11/01 05:47:43;;;;;;;0.50;0.30;;;;;;;;;;4070508;29;20499;-47
2022/11/01 05:49:44;;;;;;;0.40;0.40;;;;;;;;;;4069335;29;20056;-45
2022/11/01 05:51:46;;;;;;;0.45;0.45;;;;;;;;;;4066607;29;20119;-44
2022/11/01 05:53:48;;;;;;;0.30;0.30;;;;;;;;;;4066071;29;20452;-45
2022/11/01 05:55:49;;;;;;;0.40;0.30;;;;;;;;;;4066894;29;20056;-46
2022/11/01 05:57:57;;;;;;;0.57;0.40;;;;;;;;;;4065425;29;20072;-46
2022/11/01 05:59:58;;;;;;;0.80;0.30;;;;;;;;;;4076335;29;20093;-46
2022/11/01 06:01:59;;;;;;;0.68;0.32;;;;;;;;;;4061681;29;20535;-45
2022/11/01 06:04:00;;;;;;;0.32;0.30;;;;;;;;;;4070435;29;20051;-48
2022/11/01 06:06:02;;;;;;;0.40;0.32;;;;;;;;;;4068656;29;20067;-45
2022/11/01 06:08:04;;;;;;;0.68;0.30;;;;;;;;;;4064587;29;20066;-47
2022/11/01 06:10:05;;;;;;;0.82;0.28;;;;;;;;;;4088880;29;20597;-46
2022/11/01 06:12:07;;;;;;;0.50;0.40;;;;;;;;;;4064347;29;20077;-46
2022/11/01 06:14:08;;;;;;;1.15;0.57;;;;;;;;;;4064545;29;20091;-47
2022/11/01 06:16:10;;;;;;;1.50;0.40;;;;;;;;;;4063931;29;20507;-44
2022/11/01 06:18:12;;;;;;;0.50;0.43;;;;;;;;;;4062804;29;20290;-45
2022/11/01 06:20:13;;;;;;;0.30;0.30;;;;;;;;;;4064622;29;20424;-45
2022/11/01 06:22:14;;;;;;;0.30;0.30;;;;;;;;;;4064361;29;20056;-46
2022/11/01 06:24:16;;;;;;;0.47;0.28;;;;;;;;;;4072765;29;20067;-46
2022/11/01 06:26:18;;;;;;;0.45;0.35;;;;;;;;;;4073229;29;20666;-49
2022/11/01 06:28:19;;;;;;;0.57;0.38;;;;;;;;;;4066555;29;20063;-48
2022/11/01 06:30:21;;;;;;;0.47;0.30;;;;;;;;;;4068242;29;20123;-48
2022/11/01 06:32:22;;;;;;;1.10;0.40;;;;;;;;;;4064336;29;20060;-47
2022/11/01 06:34:23;;;;;;;0.60;0.20;;;;;;;;;;4064108;29;20103;-46
2022/11/01 06:36:25;;;;;;;0.55;0.30;;;;;;;;;;4079566;29;20060;-48
2022/11/01 06:38:26;;;;;;;0.88;0.32;;;;;;;;;;4071782;29;20396;-47
2022/11/01 06:40:27;;;;;;;0.52;0.40;;;;;;;;;;4064691;29;20060;-48
2022/11/01 06:42:29;;;;;;;0.30;0.30;;;;;;;;;;4064286;29;20103;-48
2022/11/01 06:44:30;;;;;;;0.60;0.20;;;;;;;;;;4064401;29;20131;-46
2022/11/01 06:46:31;;;;;;;0.28;0.28;;;;;;;;;;4063145;29;20059;-47
2022/11/01 06:48:33;;;;;;;0.45;0.20;;;;;;;;;;4063917;29;20055;-44
2022/11/01 06:50:34;;;;;;;0.28;0.28;;;;;;;;;;4064058;29;20483;-46
2022/11/01 06:52:36;;;;;;;0.35;0.30;;;;;;;;;;4058789;29;20053;-43
2022/11/01 06:54:37;;;;;;;0.55;0.38;;;;;;;;;;4057775;29;20055;-45
2022/11/01 06:56:39;;;;;;;0.35;0.17;;;;;;;;;;4059583;29;20185;-45
2022/11/01 06:58:40;;;;;;;0.43;0.30;;;;;;;;;;4063747;29;20669;-46
2022/11/01 07:00:41;;;;;;;0.20;0.17;;;;;;;;;;4058908;29;20122;-45
2022/11/01 07:02:43;;;;;;;0.52;0.30;;;;;;;;;;4058736;29;20060;-47
2022/11/01 07:04:44;;;;;;;0.75;0.28;;;;;;;;;;4056704;29;20379;-44
2022/11/01 07:06:46;;;;;;;1.15;0.40;;;;;;;;;;4057191;29;20527;-43
2022/11/01 07:08:47;;;;;;;0.45;0.20;;;;;;;;;;4057367;29;20060;-46
2022/11/01 07:10:50;;;;;;;0.50;0.30;;;;;;;;;;4060143;29;20064;-46
2022/11/01 07:12:59;;;;;;;0.68;0.40;;;;;;;;;;4058658;29;20100;-44
2022/11/01 07:15:00;;;;;;;0.38;0.20;;;;;;;;;;4077092;29;20083;-44
2022/11/01 07:17:02;;;;;;;0.28;0.25;;;;;;;;;;4059727;29;20169;-47
2022/11/01 07:19:03;;;;;;;0.45;0.22;;;;;;;;;;4059722;29;20056;-47
2022/11/01 07:21:05;;;;;;;0.50;0.30;;;;;;;;;;4059049;29;20056;-47
2022/11/01 07:23:10;;;;;;;0.52;0.52;;;;;;;;;;4058650;29;20640;-47
2022/11/01 07:25:12;;;;;;;1.95;0.40;;;;;;;;;;4052680;29;20067;-48
2022/11/01 07:27:14;;;;;;;0.47;0.22;;;;;;;;;;4060459;29;20115;-46
2022/11/01 07:29:15;;;;;;;1.85;0.30;;;;;;;;;;4061200;29;20056;-44
2022/11/01 07:31:17;;;;;;;1.17;0.50;;;;;;;;;;4055974;29;20081;-43
2022/11/01 07:33:18;;;;;;;0.40;0.40;;;;;;;;;;4076250;29;20059;-45
2022/11/01 07:35:21;;;;;;;0.40;0.30;;;;;;;;;;4076426;29;20051;-48
2022/11/01 07:37:22;;;;;;;0.47;0.20;;;;;;;;;;4062107;29;20056;-45
2022/11/01 07:39:24;;;;;;;0.40;0.40;;;;;;;;;;4077503;29;20562;-45
2022/11/01 07:41:26;;;;;;;1.17;0.47;;;;;;;;;;4053453;29;20064;-44
2022/11/01 07:43:27;;;;;;;0.93;0.70;;;;;;;;;;4058695;29;20055;-43
2022/11/01 07:45:30;;;;;;;0.32;0.22;;;;;;;;;;4060941;29;20116;-44
2022/11/01 07:47:32;;;;;;;1.13;0.30;;;;;;;;;;4058694;29;20516;-48
2022/11/01 07:49:33;;;;;;;0.93;0.40;;;;;;;;;;4045078;29;20056;-49
2022/11/01 07:51:35;;;;;;;0.73;0.32;;;;;;;;;;4058095;29;20055;-46
2022/11/01 07:53:36;;;;;;;2.08;0.25;;;;;;;;;;4061980;29;20079;-46
2022/11/01 07:55:38;;;;;;;1.17;0.20;;;;;;;;;;4058017;29;20075;-46
2022/11/01 07:57:40;;;;;;;0.57;0.28;;;;;;;;;;4061464;29;20443;-46
2022/11/01 07:59:41;;;;;;;0.70;0.20;;;;;;;;;;4058932;29;20060;-46
2022/11/01 08:01:42;;;;;;;2.22;0.40;;;;;;;;;;4040020;29;20056;-44
2022/11/01 08:03:44;;;;;;;0.32;0.22;;;;;;;;;;4059369;29;20100;-44
2022/11/01 08:05:46;;;;;;;1.70;0.32;;;;;;;;;;4072949;29;20059;-43
2022/11/01 08:08:06;;;;;;;1.40;0.30;;;;;;;;;;4057689;29;20106;-43
2022/11/01 08:10:10;;;;;;;3.40;0.50;;;;;;;;;;4055413;29;20645;-49
2022/11/01 08:12:11;;;;;;;1.80;0.57;;;;;;;;;;4061180;29;20052;-45
2022/11/01 08:14:12;;;;;;;0.13;0.10;;;;;;;;;;4063412;29;20068;-46
2022/11/01 08:16:16;;;;;;;0.75;0.30;;;;;;;;;;4057743;29;20063;-44
2022/11/01 08:18:23;;;;;;;0.38;0.28;;;;;;;;;;4061190;29;20559;-46
2022/11/01 08:20:26;;;;;;;2.33;0.40;;;;;;;;;;4061926;29;20103;-45
2022/11/01 08:22:27;;;;;;;1.10;0.20;;;;;;;;;;4059576;29;20525;-45
2022/11/01 08:24:29;;;;;;;0.63;0.30;;;;;;;;;;4058304;29;20063;-46
2022/11/01 08:26:30;;;;;;;0.88;0.30;;;;;;;;;;4048768;29;20580;-44
2022/11/01 08:28:31;;;;;;;1.02;0.40;;;;;;;;;;4054088;29;20056;-47
2022/11/01 08:30:33;;;;;;;0.35;0.20;;;;;;;;;;4059191;29;20448;-46
2022/11/01 08:32:34;;;;;;;0.47;0.28;;;;;;;;;;4054721;29;20071;-47
2022/11/01 08:34:35;;;;;;;2.47;0.50;;;;;;;;;;4060588;29;20119;-47
2022/11/01 08:36:37;;;;;;;1.48;0.40;;;;;;;;;;4055079;29;21080;-47
2022/11/01 08:38:38;;;;;;;0.80;0.30;;;;;;;;;;4056614;29;20067;-46
2022/11/01 08:40:39;;;;;;;2.17;0.28;;;;;;;;;;4058713;29;20066;-45
2022/11/01 08:42:40;;;;;;;0.90;0.20;;;;;;;;;;4056777;29;20075;-48
2022/11/01 08:44:42;;;;;;;2.13;0.40;;;;;;;;;;4059057;29;20068;-50
2022/11/01 08:46:44;;;;;;;0.82;0.30;;;;;;;;;;4057108;29;20131;-46
2022/11/01 08:48:46;;;;;;;0.90;0.30;;;;;;;;;;4054509;29;20361;-48
2022/11/01 08:50:48;;;;;;;0.85;0.30;;;;;;;;;;4056482;29;20060;-45
2022/11/01 08:52:49;;;;;;;0.68;0.22;;;;;;;;;;4058562;29;20340;-46
2022/11/01 08:54:50;;;;;;;0.65;0.30;;;;;;;;;;4044634;29;20167;-44
2022/11/01 08:56:52;;;;;;;0.80;0.40;;;;;;;;;;4050509;29;20079;-45
2022/11/01 08:58:53;;;;;;;1.30;0.32;;;;;;;;;;4055042;29;20055;-47
2022/11/01 09:00:55;;;;;;;0.55;0.30;;;;;;;;;;4055194;29;20127;-46
2022/11/01 09:02:56;;;;;;;0.73;0.40;;;;;;;;;;4057291;29;20131;-46
2022/11/01 09:05:01;;;;;;;0.77;0.40;;;;;;;;;;4058488;29;20139;-48
2022/11/01 09:07:02;;;;;;;0.40;0.22;;;;;;;;;;4058844;29;20459;-46
2022/11/01 09:09:04;;;;;;;0.73;0.30;;;;;;;;;;4055986;29;20480;-47
2022/11/01 09:11:05;;;;;;;1.15;0.50;;;;;;;;;;4060594;29;20786;-48
2022/11/01 09:13:07;;;;;;;0.35;0.30;;;;;;;;;;4059708;29;20060;-47
2022/11/01 09:15:09;;;;;;;0.38;0.20;;;;;;;;;;4048820;29;20110;-46
2022/11/01 09:17:10;;;;;;;2.03;0.40;;;;;;;;;;4051918;29;20056;-45
2022/11/01 09:19:12;;;;;;;0.40;0.30;;;;;;;;;;4055076;29;20752;-46
2022/11/01 09:21:14;;;;;;;0.63;0.20;;;;;;;;;;4059416;29;20071;-47
2022/11/01 09:23:15;;;;;;;0.30;0.20;;;;;;;;;;4057691;29;20198;-45
2022/11/01 09:25:16;;;;;;;0.70;0.20;;;;;;;;;;4053386;29;20056;-44
2022/11/01 09:27:17;;;;;;;0.85;0.30;;;;;;;;;;4050768;29;20194;-43
2022/11/01 09:29:20;;;;;;;0.73;0.32;;;;;;;;;;4056422;29;20063;-47
2022/11/01 09:31:21;;;;;;;0.43;0.25;;;;;;;;;;4047599;29;20074;-44
2022/11/01 09:33:23;;;;;;;2.08;0.40;;;;;;;;;;4057609;29;20111;-50
2022/11/01 09:35:24;;;;;;;2.53;0.38;;;;;;;;;;4040817;29;20112;-46
2022/11/01 09:37:25;;;;;;;0.65;0.60;;;;;;;;;;4055903;29;20479;-45
2022/11/01 09:39:26;;;;;;;2.40;0.30;;;;;;;;;;4056381;29;20059;-48
2022/11/01 09:41:51;;;;;;;0.82;0.28;;;;;;;;;;4047506;29;20111;-45
2022/11/01 09:43:53;;;;;;;0.30;0.30;;;;;;;;;;4050609;29;20657;-43
2022/11/01 09:45:58;;;;;;;1.17;0.40;;;;;;;;;;4049719;29;20055;-46
2022/11/01 09:48:01;;;;;;;0.63;0.43;;;;;;;;;;4054289;29;20063;-47
2022/11/01 09:50:12;;;;;;;0.75;0.30;;;;;;;;;;4054420;29;20056;-50
2022/11/01 09:52:19;;;;;;;0.50;0.40;;;;;;;;;;4055957;29;20103;-48
2022/11/01 09:54:23;;;;;;;1.00;0.22;;;;;;;;;;4046895;29;20082;-46
2022/11/01 09:56:37;;;;;;;1.58;0.30;;;;;;;;;;4044925;29;20417;-47
2022/11/01 09:59:00;;;;;;;0.10;0.10;;;;;;;;;;4051075;29;20919;-46
2022/11/01 10:01:26;;;;;;;0.77;0.30;;;;;;;;;;4068032;29;20063;-47
2022/11/01 10:03:59;;;;;;;1.35;0.50;;;;;;;;;;4056831;29;20052;-49
2022/11/01 10:06:09;;;;;;;0.60;0.30;;;;;;;;;;4034910;29;20109;-43
2022/11/01 10:08:35;;;;;;;0.93;0.40;;;;;;;;;;4054755;29;20119;-44
2022/11/01 10:10:42;;;;;;;1.58;0.20;;;;;;;;;;4053717;29;20396;-47
2022/11/01 10:13:05;;;;;;;2.03;0.82;;;;;;;;;;4050971;29;20052;-46
2022/11/01 10:15:37;;;;;;;0.77;0.40;;;;;;;;;;4063946;29;20570;-47
2022/11/01 10:17:49;;;;;;;0.77;0.28;;;;;;;;;;4057169;29;20442;-46
2022/11/01 10:19:51;;;;;;;2.30;0.32;;;;;;;;;;4053828;29;20135;-44
2022/11/01 10:21:55;;;;;;;1.35;0.35;;;;;;;;;;4055824;29;20112;-48
2022/11/01 10:23:59;;;;;;;0.55;0.35;;;;;;;;;;4055970;29;20090;-46
2022/11/01 10:26:01;;;;;;;0.73;0.35;;;;;;;;;;4068243;29;20047;-44
2022/11/01 10:28:17;;;;;;;0.40;0.20;;;;;;;;;;4066028;29;20507;-44
2022/11/01 10:30:19;;;;;;;1.52;0.30;;;;;;;;;;4063391;29;20613;-45
2022/11/01 10:32:34;;;;;;;0.50;0.20;;;;;;;;;;4048971;29;20141;-45
2022/11/01 10:34:37;;;;;;;0.30;0.25;;;;;;;;;;4052947;29;20068;-44
2022/11/01 10:36:39;;;;;;;0.45;0.30;;;;;;;;;;4054044;29;20139;-45
2022/11/01 10:38:50;;;;;;;1.23;0.30;;;;;;;;;;4051654;29;20060;-42
2022/11/01 10:41:00;;;;;;;1.63;0.43;;;;;;;;;;4051923;29;20503;-48
2022/11/01 10:43:12;;;;;;;0.45;0.30;;;;;;;;;;4051341;29;20269;-44
2022/11/01 10:45:18;;;;;;;0.93;0.30;;;;;;;;;;4051857;29;20063;-44
2022/11/01 10:47:21;;;;;;;3.08;0.40;;;;;;;;;;4053901;29;20052;-46
2022/11/01 10:49:23;;;;;;;0.55;0.30;;;;;;;;;;4055265;29;20460;-47
2022/11/01 10:51:27;;;;;;;1.02;0.28;;;;;;;;;;4058473;29;20063;-46
2022/11/01 10:53:32;;;;;;;0.52;0.20;;;;;;;;;;4073220;29;20063;-46
2022/11/01 10:55:38;;;;;;;0.80;0.40;;;;;;;;;;4056739;29;20139;-49
2022/11/01 10:57:44;;;;;;;1.88;0.45;;;;;;;;;;4072309;29;20613;-45
2022/11/01 10:59:46;;;;;;;4.18;0.30;;;;;;;;;;4058790;29;20124;-45
2022/11/01 11:01:49;;;;;;;0.52;0.30;;;;;;;;;;4052956;29;20060;-43
2022/11/01 11:03:51;;;;;;;0.90;0.30;;;;;;;;;;4056244;29;20072;-45
2022/11/01 11:05:53;;;;;;;1.77;0.55;;;;;;;;;;4072644;29;20058;-45
2022/11/01 11:07:56;;;;;;;3.13;0.47;;;;;;;;;;4064128;29;20110;-46
2022/11/01 11:10:01;;;;;;;0.73;0.30;;;;;;;;;;4062546;29;20052;-44
2022/11/01 11:12:05;;;;;;;2.63;0.30;;;;;;;;;;4063048;29;20056;-45
2022/11/01 11:14:07;;;;;;;1.88;0.50;;;;;;;;;;4059424;29;20056;-46
2022/11/01 11:16:20;;;;;;;13.85;0.80;;;;;;;;;;4061669;29;20103;-35
2022/11/01 11:18:28;;;;;;;2.78;0.40;;;;;;;;;;4057758;29;20091;-35
2022/11/01 11:20:30;;;;;;;1.20;0.30;;;;;;;;;;4057237;29;20063;-36
2022/11/01 11:22:39;;;;;;;0.43;0.20;;;;;;;;;;4054459;29;20048;-35
2022/11/01 11:24:42;;;;;;;4.53;1.05;;;;;;;;;;4058954;29;20063;-36
2022/11/01 11:26:45;;;;;;;0.50;0.40;;;;;;;;;;4076165;29;20102;-36
2022/11/01 11:28:50;;;;;;;0.82;0.30;;;;;;;;;;4059785;29;20155;-37
2022/11/01 11:30:52;;;;;;;1.55;0.38;;;;;;;;;;4062133;29;20063;-36
2022/11/01 11:32:53;;;;;;;0.70;0.43;;;;;;;;;;4064963;29;20056;-36
2022/11/01 11:34:57;;;;;;;0.30;0.30;;;;;;;;;;4067594;29;20072;-37
2022/11/01 11:37:00;;;;;;;0.80;0.30;;;;;;;;;;4074696;29;20118;-36
2022/11/01 11:39:02;;;;;;;0.93;0.20;;;;;;;;;;4056479;29;20056;-36
2022/11/01 11:41:03;;;;;;;0.68;0.35;;;;;;;;;;4058730;29;20075;-36
2022/11/01 11:43:21;;;;;;;0.40;0.20;;;;;;;;;;4061122;29;20056;-35
2022/11/01 11:45:28;;;;;;;0.85;0.40;;;;;;;;;;4052607;29;20514;-37
2022/11/01 11:47:35;;;;;;;1.05;0.70;;;;;;;;;;4053365;29;20100;-37
2022/11/01 11:49:37;;;;;;;0.63;0.30;;;;;;;;;;4056281;29;20091;-36
2022/11/01 11:51:39;;;;;;;1.40;0.40;;;;;;;;;;4052046;29;20512;-36
2022/11/01 11:53:40;;;;;;;0.47;0.32;;;;;;;;;;4058709;29;20155;-36
2022/11/01 11:55:54;;;;;;;0.70;0.40;;;;;;;;;;4054797;29;20060;-41
2022/11/01 11:57:55;;;;;;;0.77;0.30;;;;;;;;;;4054872;29;20064;-37
2022/11/01 12:00:04;;;;;;;1.05;0.43;;;;;;;;;;4063629;29;20066;-36
2022/11/01 12:02:34;;;;;;;1.95;0.30;;;;;;;;;;4074861;29;20056;-36
2022/11/01 12:04:41;;;;;;;2.17;0.55;;;;;;;;;;4056984;29;20509;-37
2022/11/01 12:06:43;;;;;;;0.65;0.30;;;;;;;;;;4055890;29;20100;-36
2022/11/01 12:08:48;;;;;;;2.58;0.43;;;;;;;;;;4072438;29;20055;-35
2022/11/01 12:10:56;;;;;;;1.25;0.45;;;;;;;;;;4060788;29;20072;-36
2022/11/01 12:12:57;;;;;;;3.08;0.50;;;;;;;;;;4067135;29;20175;-36
2022/11/01 12:15:00;;;;;;;1.05;0.43;;;;;;;;;;4038971;29;20635;-36
2022/11/01 12:17:01;;;;;;;0.93;0.40;;;;;;;;;;4073840;29;20064;-36
2022/11/01 12:19:03;;;;;;;1.58;0.40;;;;;;;;;;4061869;29;20095;-36
2022/11/01 12:21:16;;;;;;;0.93;0.47;;;;;;;;;;4070162;29;20236;-37
2022/11/01 12:23:30;;;;;;;1.35;0.40;;;;;;;;;;4086860;28;20106;-36
2022/11/01 12:25:32;;;;;;;1.75;0.50;;;;;;;;;;4057541;29;20134;-36
2022/11/01 12:27:34;;;;;;;1.48;0.55;;;;;;;;;;4054246;29;20060;-36
2022/11/01 12:29:53;;;;;;;1.17;0.60;;;;;;;;;;4073924;29;20060;-35